Time;durP1;ratioP1;P1;durP2;ratioP2;P2;SDS_P1;SDS_P2;PMS_P1;PMS_P2;Temp;Humidity;BMP_temperature;BMP_pressure;BME280_temperature;BME280_humidity;BME280_pressure;Samples;Min_cycle;Max_cycle;Signal;HPM_P1;HPM_P2
2021/09/19 00:00:09;;;;;;;9.43;7.18;;;14.30;99.90;;;;;;4900556;29;20131;-80
2021/09/19 00:02:36;;;;;;;8.48;7.03;;;14.20;99.90;;;;;;4900756;29;20063;-78
2021/09/19 00:05:06;;;;;;;10.48;7.68;;;14.20;99.90;;;;;;4898419;29;20045;-80
2021/09/19 00:07:33;;;;;;;9.50;7.13;;;14.20;99.90;;;;;;4900195;29;20051;-79
2021/09/19 00:10:01;;;;;;;11.32;7.53;;;14.10;99.90;;;;;;4901026;29;20072;-79
2021/09/19 00:12:28;;;;;;;10.27;7.03;;;14.10;99.90;;;;;;4900753;29;20459;-80
2021/09/19 00:14:55;;;;;;;10.82;7.85;;;14.00;99.90;;;;;;4899007;29;20143;-77
2021/09/19 00:17:24;;;;;;;11.77;8.85;;;14.00;99.90;;;;;;4900407;29;20063;-81
2021/09/19 00:19:51;;;;;;;10.82;7.40;;;13.80;99.90;;;;;;4900037;29;20159;-77
2021/09/19 00:22:20;;;;;;;10.43;7.82;;;13.80;99.90;;;;;;4900024;29;20147;-80
2021/09/19 00:24:47;;;;;;;12.10;8.23;;;13.70;99.90;;;;;;4900564;29;20139;-80
2021/09/19 00:27:14;;;;;;;14.57;10.05;;;13.70;99.90;;;;;;4900045;29;20175;-80
2021/09/19 00:29:41;;;;;;;12.88;9.52;;;13.70;99.90;;;;;;4899128;29;20048;-78
2021/09/19 00:32:08;;;;;;;11.57;8.32;;;13.70;99.90;;;;;;4900449;29;20139;-80
2021/09/19 00:34:36;;;;;;;11.70;9.18;;;13.70;99.90;;;;;;4899833;29;20408;-80
2021/09/19 00:37:03;;;;;;;11.38;8.25;;;13.70;99.90;;;;;;4921933;29;20048;-81
2021/09/19 00:39:32;;;;;;;10.73;8.30;;;13.70;99.90;;;;;;4899986;29;20044;-79
2021/09/19 00:41:59;;;;;;;11.20;8.40;;;13.70;99.90;;;;;;4899593;29;20139;-79
2021/09/19 00:44:28;;;;;;;20.15;13.60;;;13.80;99.90;;;;;;4899257;29;20136;-80
2021/09/19 00:46:56;;;;;;;33.17;21.67;;;13.80;99.90;;;;;;4898936;29;20419;-80
2021/09/19 00:49:26;;;;;;;21.15;13.68;;;13.80;99.90;;;;;;4899432;29;20131;-80
2021/09/19 00:51:54;;;;;;;12.23;9.40;;;13.90;99.90;;;;;;4899781;29;20087;-79
2021/09/19 00:54:22;;;;;;;11.48;8.32;;;13.90;99.90;;;;;;4899441;29;20135;-79
2021/09/19 00:56:56;;;;;;;10.73;8.50;;;13.90;99.90;;;;;;4899167;29;20055;-79
2021/09/19 00:59:26;;;;;;;10.10;7.80;;;13.80;99.90;;;;;;4899552;29;20137;-79
2021/09/19 01:01:53;;;;;;;11.18;8.13;;;13.70;99.90;;;;;;4898692;29;20089;-80
2021/09/19 01:04:21;;;;;;;10.15;7.80;;;13.70;99.90;;;;;;4898962;29;20058;-79
2021/09/19 01:06:49;;;;;;;9.65;7.10;;;13.60;99.90;;;;;;4925977;29;20079;-80
2021/09/19 01:09:17;;;;;;;10.50;7.28;;;13.60;99.90;;;;;;4898027;29;20045;-79
2021/09/19 01:11:44;;;;;;;9.93;7.25;;;13.50;99.90;;;;;;4899115;29;20087;-80
2021/09/19 01:14:15;;;;;;;10.13;7.45;;;13.50;99.90;;;;;;4897650;29;20127;-80
2021/09/19 01:16:43;;;;;;;9.63;7.88;;;13.50;99.90;;;;;;4898499;29;20056;-79
2021/09/19 01:19:17;;;;;;;10.32;7.07;;;13.50;99.90;;;;;;4897933;29;20468;-78
2021/09/19 01:21:45;;;;;;;11.40;7.35;;;13.50;99.90;;;;;;4899403;29;20144;-79
2021/09/19 01:24:14;;;;;;;10.18;7.50;;;13.50;99.90;;;;;;4899091;29;20131;-77
2021/09/19 01:26:41;;;;;;;10.38;7.88;;;13.50;99.90;;;;;;4898769;29;20103;-80
2021/09/19 01:29:09;;;;;;;10.63;7.72;;;13.40;99.90;;;;;;4899068;29;20131;-79
2021/09/19 01:31:39;;;;;;;10.32;7.70;;;13.40;99.90;;;;;;4898570;29;20131;-80
2021/09/19 01:34:06;;;;;;;10.18;7.88;;;13.30;99.90;;;;;;4898570;29;20052;-79
2021/09/19 01:36:36;;;;;;;13.77;9.60;;;13.20;99.90;;;;;;4898749;29;20040;-79
2021/09/19 01:39:04;;;;;;;12.40;9.45;;;13.20;99.90;;;;;;4898842;29;20060;-80
2021/09/19 01:41:33;;;;;;;13.05;9.75;;;13.10;99.90;;;;;;4898673;29;20473;-79
2021/09/19 01:44:01;;;;;;;13.23;10.15;;;13.10;99.90;;;;;;4898186;29;20143;-79
2021/09/19 01:46:28;;;;;;;12.25;9.60;;;13.10;99.90;;;;;;4897969;29;20139;-80
2021/09/19 01:48:55;;;;;;;12.65;9.35;;;13.10;99.90;;;;;;4898626;29;20135;-79
2021/09/19 01:51:22;;;;;;;13.20;10.88;;;13.20;99.90;;;;;;4898985;29;20522;-79
2021/09/19 01:53:50;;;;;;;13.93;10.45;;;13.20;99.90;;;;;;4898770;29;20053;-80
2021/09/19 01:56:19;;;;;;;14.07;10.32;;;13.20;99.90;;;;;;4898068;29;20049;-81
2021/09/19 01:58:52;;;;;;;11.95;9.43;;;13.20;99.90;;;;;;4898587;29;20064;-81
2021/09/19 02:01:21;;;;;;;13.35;10.20;;;13.20;99.90;;;;;;4898144;29;20190;-79
2021/09/19 02:03:49;;;;;;;13.73;10.02;;;13.20;99.90;;;;;;4898879;29;20059;-79
2021/09/19 02:06:17;;;;;;;14.98;10.75;;;13.20;99.90;;;;;;4898326;29;20044;-79
2021/09/19 02:08:44;;;;;;;15.02;10.98;;;13.10;99.90;;;;;;4898661;29;20565;-80
2021/09/19 02:11:14;;;;;;;14.15;10.40;;;13.10;99.90;;;;;;4896835;29;20123;-81
2021/09/19 02:13:45;;;;;;;13.25;10.27;;;13.00;99.90;;;;;;4897881;29;20131;-82
2021/09/19 02:16:16;;;;;;;13.77;10.23;;;13.00;99.90;;;;;;4897645;29;20088;-79
2021/09/19 02:18:43;;;;;;;14.40;10.63;;;12.90;99.90;;;;;;4898918;29;20463;-77
2021/09/19 02:21:11;;;;;;;15.45;10.45;;;12.80;99.90;;;;;;4897588;29;20625;-79
2021/09/19 02:23:39;;;;;;;13.95;9.50;;;12.80;99.90;;;;;;4898108;29;20527;-79
2021/09/19 02:26:07;;;;;;;13.43;9.57;;;12.90;99.90;;;;;;4897207;29;20139;-79
2021/09/19 02:28:35;;;;;;;11.55;9.10;;;12.80;99.90;;;;;;4897808;29;20131;-79
2021/09/19 02:31:03;;;;;;;14.73;10.57;;;12.90;99.90;;;;;;4897432;29;20091;-81
2021/09/19 02:33:32;;;;;;;12.70;9.25;;;12.90;99.90;;;;;;4890631;29;20485;-80
2021/09/19 02:35:59;;;;;;;15.02;9.82;;;12.90;99.90;;;;;;4897318;29;20143;-79
2021/09/19 02:38:27;;;;;;;13.23;9.93;;;12.80;99.90;;;;;;4896980;29;20127;-79
2021/09/19 02:40:54;;;;;;;14.35;10.13;;;12.80;99.90;;;;;;4897890;29;20083;-79
2021/09/19 02:43:23;;;;;;;15.55;10.82;;;12.80;99.90;;;;;;4897159;29;20045;-80
2021/09/19 02:45:51;;;;;;;14.57;10.63;;;12.70;99.90;;;;;;4897803;29;20052;-80
2021/09/19 02:48:18;;;;;;;13.82;10.52;;;12.80;99.90;;;;;;4897097;29;20473;-80
2021/09/19 02:50:46;;;;;;;16.02;10.18;;;12.80;99.90;;;;;;4897450;29;20443;-79
2021/09/19 02:53:14;;;;;;;12.75;8.82;;;12.80;99.90;;;;;;4896395;29;20591;-79
2021/09/19 02:55:41;;;;;;;11.43;8.65;;;12.70;99.90;;;;;;4885781;29;20511;-79
2021/09/19 02:58:08;;;;;;;13.38;9.00;;;12.70;99.90;;;;;;4885695;29;20148;-79
2021/09/19 03:00:36;;;;;;;12.50;8.73;;;12.80;99.90;;;;;;4890433;29;20487;-80
2021/09/19 03:03:03;;;;;;;13.35;9.45;;;12.80;99.90;;;;;;4895129;29;20490;-79
2021/09/19 03:05:31;;;;;;;12.65;8.32;;;12.80;99.90;;;;;;4895658;29;20048;-80
2021/09/19 03:07:59;;;;;;;11.68;9.20;;;12.80;99.90;;;;;;4895381;29;20128;-77
2021/09/19 03:10:27;;;;;;;12.07;9.02;;;12.80;99.90;;;;;;4894758;29;20103;-80
2021/09/19 03:12:54;;;;;;;12.95;9.35;;;12.80;99.90;;;;;;4894108;29;20470;-79
2021/09/19 03:15:21;;;;;;;12.52;9.23;;;12.80;99.90;;;;;;4894604;29;20147;-80
2021/09/19 03:17:49;;;;;;;13.55;9.02;;;12.70;99.90;;;;;;4895275;29;20057;-79
2021/09/19 03:20:18;;;;;;;11.30;8.60;;;12.60;99.90;;;;;;4894784;29;20148;-80
2021/09/19 03:22:47;;;;;;;12.13;9.07;;;12.50;99.90;;;;;;4894938;29;20049;-81
2021/09/19 03:25:15;;;;;;;12.43;9.27;;;12.50;99.90;;;;;;4895064;29;20052;-78
2021/09/19 03:27:44;;;;;;;12.18;8.65;;;12.50;99.90;;;;;;4894709;29;20054;-78
2021/09/19 03:30:14;;;;;;;12.65;8.88;;;12.50;99.90;;;;;;4894585;29;20139;-80
2021/09/19 03:32:43;;;;;;;11.93;8.80;;;12.50;99.90;;;;;;4881760;29;20052;-80
2021/09/19 03:35:11;;;;;;;13.40;9.00;;;12.50;99.90;;;;;;4898125;29;20139;-80
2021/09/19 03:37:39;;;;;;;12.10;8.50;;;12.60;99.90;;;;;;4897832;29;20506;-80
2021/09/19 03:40:09;;;;;;;12.60;8.52;;;12.60;99.90;;;;;;4898184;29;20063;-79
2021/09/19 03:42:38;;;;;;;12.90;8.85;;;12.50;99.90;;;;;;4897958;29;20044;-79
2021/09/19 03:45:07;;;;;;;13.55;9.32;;;12.60;99.90;;;;;;4897989;29;20514;-80
2021/09/19 03:47:36;;;;;;;12.27;9.00;;;12.50;99.90;;;;;;4898018;29;20136;-80
2021/09/19 03:50:05;;;;;;;11.88;8.57;;;12.50;99.90;;;;;;4897729;29;20574;-80
2021/09/19 03:52:34;;;;;;;11.60;8.32;;;12.40;99.90;;;;;;4897979;29;20049;-80
2021/09/19 03:55:01;;;;;;;10.98;8.40;;;12.40;99.90;;;;;;4897954;29;20139;-79
2021/09/19 03:57:28;;;;;;;11.45;8.65;;;12.30;99.90;;;;;;4897186;29;20318;-78
2021/09/19 03:59:57;;;;;;;12.05;8.05;;;12.30;99.90;;;;;;4898072;29;20136;-81
2021/09/19 04:02:24;;;;;;;11.70;8.35;;;12.30;99.90;;;;;;4899576;29;20127;-80
2021/09/19 04:04:51;;;;;;;12.15;8.65;;;12.30;99.90;;;;;;4899831;29;20598;-81
2021/09/19 04:07:18;;;;;;;12.07;8.73;;;12.30;99.90;;;;;;4898467;29;20151;-80
2021/09/19 04:09:45;;;;;;;10.88;7.78;;;12.40;99.90;;;;;;4899924;29;20088;-81
2021/09/19 04:12:12;;;;;;;11.00;8.32;;;12.40;99.90;;;;;;4899719;29;20084;-80
2021/09/19 04:14:40;;;;;;;12.57;9.27;;;12.30;99.90;;;;;;4900238;29;20055;-78
2021/09/19 04:17:08;;;;;;;11.60;8.63;;;12.30;99.90;;;;;;4899477;29;20057;-80
2021/09/19 04:19:38;;;;;;;12.52;8.77;;;12.20;99.90;;;;;;4899650;29;20076;-80
2021/09/19 04:22:05;;;;;;;11.05;8.45;;;12.20;99.90;;;;;;4899754;29;20132;-80
2021/09/19 04:24:32;;;;;;;10.82;7.88;;;12.10;99.90;;;;;;4899628;29;20143;-78
2021/09/19 04:26:59;;;;;;;11.73;8.35;;;12.10;99.90;;;;;;4899542;29;20132;-80
2021/09/19 04:29:26;;;;;;;12.15;8.35;;;12.10;99.90;;;;;;4899304;29;20567;-79
2021/09/19 04:31:53;;;;;;;12.57;8.32;;;12.20;99.90;;;;;;4899621;29;20164;-80
2021/09/19 04:34:22;;;;;;;10.93;8.25;;;12.20;99.90;;;;;;4899169;29;20131;-79
2021/09/19 04:36:49;;;;;;;10.75;8.27;;;12.20;99.90;;;;;;4899583;29;20133;-80
2021/09/19 04:39:16;;;;;;;11.57;8.20;;;12.20;99.90;;;;;;4899030;29;20125;-79
2021/09/19 04:41:43;;;;;;;11.23;8.07;;;12.20;99.90;;;;;;4899313;29;20566;-81
2021/09/19 04:44:10;;;;;;;13.82;8.68;;;12.20;99.90;;;;;;4898987;29;20084;-79
2021/09/19 04:46:40;;;;;;;11.13;7.78;;;12.20;99.90;;;;;;4899498;29;20128;-79
2021/09/19 04:49:07;;;;;;;11.18;8.18;;;12.20;99.90;;;;;;4899086;29;20135;-80
2021/09/19 04:51:36;;;;;;;10.25;7.50;;;12.10;99.90;;;;;;4899324;29;20045;-81
2021/09/19 04:54:03;;;;;;;11.63;7.35;;;12.10;99.90;;;;;;4898695;29;20059;-79
2021/09/19 04:56:31;;;;;;;11.73;8.35;;;12.10;99.90;;;;;;4899354;29;20048;-81
2021/09/19 04:58:58;;;;;;;13.05;8.32;;;12.20;99.90;;;;;;4899137;29;20131;-79
2021/09/19 05:01:25;;;;;;;12.48;8.05;;;12.10;99.90;;;;;;4898768;29;20135;-81
2021/09/19 05:03:52;;;;;;;11.63;8.20;;;12.20;99.90;;;;;;4898862;29;20060;-79
2021/09/19 05:06:19;;;;;;;12.15;8.25;;;12.10;99.90;;;;;;4898290;29;20062;-80
2021/09/19 05:08:47;;;;;;;12.57;8.32;;;12.10;99.90;;;;;;4899036;29;20056;-78
2021/09/19 05:11:14;;;;;;;11.43;7.85;;;12.10;99.90;;;;;;4898987;29;20135;-78
2021/09/19 05:13:41;;;;;;;9.45;7.28;;;12.00;99.90;;;;;;4903229;29;20124;-79
2021/09/19 05:16:09;;;;;;;10.00;7.38;;;11.90;99.90;;;;;;4899237;29;20083;-80
2021/09/19 05:18:36;;;;;;;10.57;7.70;;;11.90;99.90;;;;;;4898637;29;20238;-79
2021/09/19 05:21:03;;;;;;;12.70;7.63;;;11.90;99.90;;;;;;4898194;29;20135;-80
2021/09/19 05:23:31;;;;;;;9.98;7.43;;;11.90;99.90;;;;;;4898813;29;20136;-81
2021/09/19 05:25:59;;;;;;;10.82;7.65;;;11.90;99.90;;;;;;4899008;29;20136;-78
2021/09/19 05:28:26;;;;;;;10.20;7.55;;;11.90;99.90;;;;;;4898795;29;20538;-80
2021/09/19 05:30:54;;;;;;;11.13;7.45;;;11.90;99.90;;;;;;4921521;29;20090;-80
2021/09/19 05:33:21;;;;;;;11.95;7.80;;;11.90;99.90;;;;;;4898635;29;20088;-81
2021/09/19 05:35:48;;;;;;;10.25;7.70;;;11.90;99.90;;;;;;4898390;29;20139;-79
2021/09/19 05:38:16;;;;;;;9.52;7.00;;;11.90;99.90;;;;;;4898655;29;20050;-79
2021/09/19 05:40:43;;;;;;;10.32;7.03;;;11.90;99.90;;;;;;4902344;29;20052;-81
2021/09/19 05:43:12;;;;;;;9.55;7.05;;;11.90;99.90;;;;;;4902076;29;20131;-79
2021/09/19 05:45:39;;;;;;;10.93;7.68;;;12.00;99.90;;;;;;4902460;29;20139;-79
2021/09/19 05:48:07;;;;;;;10.82;7.55;;;11.90;99.90;;;;;;4900874;29;20076;-78
2021/09/19 05:50:34;;;;;;;9.30;6.60;;;12.00;99.90;;;;;;4902706;29;20135;-79
2021/09/19 05:53:01;;;;;;;10.32;7.28;;;12.00;99.90;;;;;;4902717;29;20084;-77
2021/09/19 05:55:28;;;;;;;8.88;6.32;;;12.00;99.90;;;;;;4902551;29;20139;-79
2021/09/19 05:57:55;;;;;;;10.38;7.75;;;12.10;99.90;;;;;;4902969;29;20555;-79
2021/09/19 06:00:24;;;;;;;9.63;7.47;;;12.10;99.90;;;;;;4903492;29;20349;-80
2021/09/19 06:02:51;;;;;;;10.10;7.43;;;12.10;99.90;;;;;;4903953;29;20124;-79
2021/09/19 06:05:18;;;;;;;9.50;7.40;;;12.20;99.90;;;;;;4901367;29;20131;-81
2021/09/19 06:07:45;;;;;;;10.88;7.47;;;12.20;99.90;;;;;;4899915;29;20075;-80
2021/09/19 06:10:13;;;;;;;11.45;8.10;;;12.30;99.90;;;;;;4898808;29;20164;-80
2021/09/19 06:12:40;;;;;;;11.00;8.45;;;12.30;99.90;;;;;;4892722;29;20522;-80
2021/09/19 06:15:09;;;;;;;10.55;8.00;;;12.30;99.90;;;;;;4897090;29;20144;-80
2021/09/19 06:17:38;;;;;;;10.25;7.60;;;12.30;99.90;;;;;;4905734;29;20148;-78
2021/09/19 06:20:07;;;;;;;13.02;7.82;;;12.30;99.90;;;;;;4913580;29;20488;-80
2021/09/19 06:22:34;;;;;;;9.57;7.38;;;12.30;99.90;;;;;;4898187;29;20083;-83
2021/09/19 06:25:01;;;;;;;9.73;6.90;;;12.30;99.90;;;;;;4899231;29;20433;-79
2021/09/19 06:27:28;;;;;;;10.23;7.43;;;12.40;99.90;;;;;;4898798;29;20124;-80
2021/09/19 06:29:55;;;;;;;12.00;8.23;;;12.40;99.90;;;;;;4898754;29;20494;-80
2021/09/19 06:32:22;;;;;;;11.65;8.55;;;12.40;99.90;;;;;;4895288;29;20131;-80
2021/09/19 06:34:51;;;;;;;10.18;8.18;;;12.30;99.90;;;;;;4898854;29;20273;-81
2021/09/19 06:37:18;;;;;;;10.77;8.20;;;12.20;99.90;;;;;;4917911;29;20052;-78
2021/09/19 06:39:46;;;;;;;14.07;8.57;;;12.20;99.90;;;;;;4912419;29;20143;-80
2021/09/19 06:42:13;;;;;;;12.15;8.75;;;12.10;99.90;;;;;;4886787;29;20080;-80
2021/09/19 06:44:40;;;;;;;11.55;8.45;;;12.10;99.90;;;;;;4893562;29;20089;-81
2021/09/19 06:47:07;;;;;;;11.30;8.13;;;12.10;99.90;;;;;;4892717;29;20063;-80
2021/09/19 06:49:35;;;;;;;12.45;9.32;;;12.10;99.90;;;;;;4884770;29;20050;-80
2021/09/19 06:52:04;;;;;;;10.77;7.65;;;12.10;99.90;;;;;;4885716;29;20149;-82
2021/09/19 06:54:31;;;;;;;10.00;7.22;;;12.20;99.90;;;;;;4890715;29;20398;-81
2021/09/19 06:56:58;;;;;;;10.65;8.30;;;12.20;99.90;;;;;;4879849;29;20092;-79
2021/09/19 06:59:25;;;;;;;11.73;8.30;;;12.40;99.90;;;;;;4889676;29;20053;-81
2021/09/19 07:01:52;;;;;;;11.10;8.10;;;12.40;99.90;;;;;;4884892;29;20147;-79
2021/09/19 07:04:19;;;;;;;11.30;8.52;;;12.50;99.90;;;;;;4894166;29;20147;-80
2021/09/19 07:06:47;;;;;;;10.60;7.93;;;12.60;99.90;;;;;;4899670;29;20558;-81
2021/09/19 07:09:15;;;;;;;11.05;8.30;;;12.60;99.90;;;;;;4900627;29;20169;-78
2021/09/19 07:11:42;;;;;;;9.95;7.93;;;12.70;99.90;;;;;;4900739;29;20140;-79
2021/09/19 07:14:09;;;;;;;10.63;7.55;;;12.80;99.90;;;;;;4900401;29;20443;-77
2021/09/19 07:16:36;;;;;;;10.18;7.88;;;12.80;99.90;;;;;;4900775;29;20084;-79
2021/09/19 07:19:06;;;;;;;11.23;8.48;;;13.00;99.90;;;;;;4900282;29;20135;-79
2021/09/19 07:21:33;;;;;;;11.30;8.60;;;13.00;99.90;;;;;;4898904;29;20080;-80
2021/09/19 07:24:00;;;;;;;11.43;8.77;;;13.00;99.90;;;;;;4898565;29;20410;-79
2021/09/19 07:26:29;;;;;;;10.75;7.95;;;13.00;99.90;;;;;;4891669;29;20398;-79
2021/09/19 07:28:57;;;;;;;11.05;8.10;;;13.10;99.90;;;;;;4888015;29;20132;-80
2021/09/19 07:31:24;;;;;;;10.80;7.70;;;13.10;99.90;;;;;;4887020;29;20422;-80
2021/09/19 07:33:52;;;;;;;9.38;7.40;;;13.10;99.90;;;;;;4887176;29;20090;-78
2021/09/19 07:36:27;;;;;;;10.50;7.60;;;13.20;99.90;;;;;;4894841;29;20186;-79
2021/09/19 07:38:54;;;;;;;10.80;8.18;;;13.30;99.90;;;;;;4901077;29;20056;-81
2021/09/19 07:41:22;;;;;;;12.68;8.55;;;13.30;99.90;;;;;;4898474;29;20131;-79
2021/09/19 07:43:52;;;;;;;11.20;7.95;;;13.40;99.90;;;;;;4891117;29;20555;-80
2021/09/19 07:46:25;;;;;;;10.45;8.18;;;13.40;99.90;;;;;;4887200;29;20140;-77
2021/09/19 07:48:53;;;;;;;10.25;7.22;;;13.40;99.90;;;;;;4917411;29;20578;-79
2021/09/19 07:51:23;;;;;;;9.40;7.13;;;13.40;99.90;;;;;;4918830;29;20060;-80
2021/09/19 07:53:51;;;;;;;9.65;7.70;;;13.50;99.90;;;;;;4887615;29;20097;-81
2021/09/19 07:56:20;;;;;;;9.45;7.32;;;13.50;99.90;;;;;;4886955;29;20143;-81
2021/09/19 07:58:48;;;;;;;10.13;7.47;;;13.50;99.90;;;;;;4894244;29;20143;-79
2021/09/19 08:01:17;;;;;;;9.95;7.43;;;13.60;99.90;;;;;;4905093;29;20072;-80
2021/09/19 08:03:44;;;;;;;13.35;8.07;;;13.70;99.90;;;;;;4889254;29;20165;-80
2021/09/19 08:06:11;;;;;;;13.00;8.20;;;13.70;99.90;;;;;;4888218;29;20132;-79
2021/09/19 08:08:38;;;;;;;10.93;7.47;;;13.80;99.90;;;;;;4896693;29;20455;-77
2021/09/19 08:11:06;;;;;;;8.40;6.40;;;13.80;99.90;;;;;;4900540;29;20562;-79
2021/09/19 08:13:33;;;;;;;10.77;7.88;;;13.90;99.90;;;;;;4901132;29;20044;-80
2021/09/19 08:16:00;;;;;;;10.88;7.95;;;14.00;99.90;;;;;;4912329;29;20127;-79
2021/09/19 08:18:28;;;;;;;10.30;7.88;;;14.10;99.90;;;;;;4918091;29;20139;-80
2021/09/19 08:20:55;;;;;;;9.70;6.82;;;14.10;99.90;;;;;;4911442;29;20136;-81
2021/09/19 08:23:22;;;;;;;9.18;7.07;;;14.10;99.90;;;;;;4883535;29;20526;-80
2021/09/19 08:25:53;;;;;;;8.45;6.38;;;14.20;99.90;;;;;;4899816;29;20059;-77
2021/09/19 08:28:20;;;;;;;9.60;7.15;;;14.20;99.90;;;;;;4901682;29;20590;-79
2021/09/19 08:30:47;;;;;;;8.80;6.75;;;14.30;99.90;;;;;;4913857;29;20131;-79
2021/09/19 08:33:14;;;;;;;10.80;6.78;;;14.30;99.90;;;;;;4919490;29;20135;-79
2021/09/19 08:35:43;;;;;;;8.55;6.80;;;14.30;99.90;;;;;;4919252;29;20084;-79
2021/09/19 08:38:10;;;;;;;8.65;6.63;;;14.40;99.90;;;;;;4919124;29;20574;-79
2021/09/19 08:40:37;;;;;;;8.10;5.82;;;14.50;99.90;;;;;;4918830;29;20135;-79
2021/09/19 08:43:06;;;;;;;9.00;6.53;;;14.50;99.90;;;;;;4905378;29;20135;-79
2021/09/19 08:45:33;;;;;;;8.68;6.13;;;14.60;99.90;;;;;;4900099;29;20471;-79
2021/09/19 08:48:01;;;;;;;8.63;5.70;;;14.60;99.90;;;;;;4899980;29;20053;-80
2021/09/19 08:50:28;;;;;;;7.10;5.15;;;14.70;99.90;;;;;;4900900;29;20048;-79
2021/09/19 08:52:57;;;;;;;6.50;4.78;;;14.70;99.90;;;;;;4900182;29;20053;-80
2021/09/19 08:55:24;;;;;;;6.45;4.22;;;14.80;99.90;;;;;;4899941;29;20140;-79
2021/09/19 08:57:53;;;;;;;6.93;4.60;;;14.90;99.90;;;;;;4902388;29;20079;-80
2021/09/19 09:00:20;;;;;;;7.38;4.95;;;15.00;99.90;;;;;;4913877;29;20052;-80
2021/09/19 09:02:51;;;;;;;8.05;5.55;;;15.10;99.90;;;;;;4905869;29;20131;-78
2021/09/19 09:05:25;;;;;;;6.82;5.18;;;15.10;99.90;;;;;;4890997;29;20056;-83
2021/09/19 09:07:58;;;;;;;8.18;5.75;;;15.20;99.90;;;;;;4896040;29;20055;-82
2021/09/19 09:10:38;;;;;;;7.70;4.25;;;15.30;99.90;;;;;;4900407;29;20056;-78
2021/09/19 09:13:08;;;;;;;6.22;4.20;;;15.40;99.90;;;;;;4898975;29;20067;-79
2021/09/19 09:15:40;;;;;;;5.45;3.65;;;15.50;99.90;;;;;;4878758;29;20135;-78
2021/09/19 09:18:07;;;;;;;5.15;3.72;;;15.60;99.90;;;;;;4899130;29;20112;-79
2021/09/19 09:20:55;;;;;;;6.72;4.60;;;15.70;99.90;;;;;;4900536;29;20064;-81
2021/09/19 09:23:33;;;;;;;5.75;4.05;;;15.90;99.90;;;;;;4885306;29;20104;-80
2021/09/19 09:26:20;;;;;;;5.88;4.00;;;16.00;99.90;;;;;;4891426;29;20088;-78
2021/09/19 09:28:55;;;;;;;6.88;4.97;;;16.10;99.90;;;;;;4900879;29;20071;-79
2021/09/19 09:31:33;;;;;;;6.28;4.50;;;16.10;99.90;;;;;;4896131;29;20049;-78
2021/09/19 09:34:10;;;;;;;7.82;5.60;;;16.20;99.90;;;;;;4907503;29;20045;-79
2021/09/19 09:36:45;;;;;;;6.60;4.68;;;16.30;99.80;;;;;;4895734;29;20052;-79
2021/09/19 09:39:30;;;;;;;9.13;6.03;;;16.30;99.90;;;;;;4913003;29;20152;-79
2021/09/19 09:42:01;;;;;;;7.32;5.05;;;16.40;99.70;;;;;;4895281;29;20481;-80
2021/09/19 09:44:33;;;;;;;7.30;5.18;;;16.40;99.80;;;;;;4895839;29;20526;-79
2021/09/19 09:47:04;;;;;;;7.13;5.70;;;16.40;99.80;;;;;;4896090;29;20472;-79
2021/09/19 09:49:48;;;;;;;6.95;4.75;;;16.40;99.90;;;;;;4893177;29;20403;-82
2021/09/19 09:52:21;;;;;;;6.47;4.00;;;16.50;99.90;;;;;;4916439;29;20105;-82
2021/09/19 09:54:54;;;;;;;8.00;5.45;;;16.60;99.90;;;;;;4896727;29;20108;-82
2021/09/19 09:57:57;;;;;;;7.10;4.68;;;16.70;99.90;;;;;;4893319;29;20056;-82
2021/09/19 10:00:24;;;;;;;7.03;4.72;;;16.70;99.90;;;;;;4896687;29;20067;-81
2021/09/19 10:02:55;;;;;;;8.32;5.80;;;16.80;99.60;;;;;;4911503;29;20048;-83
2021/09/19 10:05:26;;;;;;;8.57;5.60;;;16.90;99.10;;;;;;4904461;29;20529;-81
2021/09/19 10:07:54;;;;;;;6.95;4.93;;;16.90;98.80;;;;;;4890352;29;20495;-82
2021/09/19 10:10:26;;;;;;;7.07;4.25;;;17.00;98.90;;;;;;4877872;29;20136;-83
2021/09/19 10:12:55;;;;;;;7.47;5.47;;;17.00;99.00;;;;;;4890297;29;20478;-80
2021/09/19 10:15:24;;;;;;;7.78;5.88;;;17.10;98.60;;;;;;4894679;29;20487;-80
2021/09/19 10:17:52;;;;;;;11.25;5.18;;;17.10;98.40;;;;;;4894483;29;20056;-81
2021/09/19 10:20:22;;;;;;;6.32;4.10;;;17.20;98.20;;;;;;4894984;29;20558;-78
2021/09/19 10:22:58;;;;;;;5.95;3.80;;;17.20;98.60;;;;;;4895072;29;20049;-74
2021/09/19 10:25:48;;;;;;;5.50;3.63;;;17.30;98.30;;;;;;4894432;29;20084;-76
2021/09/19 10:28:29;;;;;;;6.28;3.95;;;17.40;98.50;;;;;;4912690;29;20127;-79
2021/09/19 10:31:24;;;;;;;5.30;3.80;;;17.50;98.60;;;;;;4920709;29;20049;-78
2021/09/19 10:33:58;;;;;;;5.40;3.70;;;17.60;98.60;;;;;;4897108;29;20048;-78
2021/09/19 10:36:46;;;;;;;5.50;3.90;;;17.70;98.20;;;;;;4893386;29;20135;-77
2021/09/19 10:39:26;;;;;;;6.18;4.10;;;17.70;98.10;;;;;;4893241;29;20084;-80
2021/09/19 10:42:30;;;;;;;5.78;3.83;;;17.80;98.10;;;;;;4892831;29;20080;-77
2021/09/19 10:45:15;;;;;;;6.30;4.53;;;17.90;97.70;;;;;;4890412;29;20135;-80
2021/09/19 10:47:53;;;;;;;6.47;4.10;;;17.90;97.40;;;;;;4889239;29;20056;-80
2021/09/19 10:50:36;;;;;;;5.40;3.67;;;18.00;97.30;;;;;;4894382;29;20056;-79
2021/09/19 10:53:05;;;;;;;5.78;3.80;;;18.10;97.40;;;;;;4894086;29;20055;-80
2021/09/19 10:55:36;;;;;;;5.20;3.35;;;18.20;97.30;;;;;;4887490;29;20067;-77
2021/09/19 10:58:13;;;;;;;5.25;3.30;;;18.20;97.20;;;;;;4893015;29;20518;-80
2021/09/19 11:00:43;;;;;;;5.35;3.53;;;18.30;97.20;;;;;;4893791;29;20410;-80
2021/09/19 11:03:16;;;;;;;5.07;3.42;;;18.40;97.00;;;;;;4893248;29;20045;-79
2021/09/19 11:05:50;;;;;;;4.97;2.92;;;18.40;96.90;;;;;;4894430;29;20123;-78
2021/09/19 11:08:39;;;;;;;5.00;3.15;;;18.50;97.00;;;;;;4893074;29;20207;-80
2021/09/19 11:11:21;;;;;;;5.88;3.72;;;18.60;97.10;;;;;;4891704;29;20049;-79
2021/09/19 11:13:55;;;;;;;5.47;3.60;;;18.70;97.00;;;;;;4889189;29;20049;-78
2021/09/19 11:16:30;;;;;;;5.22;3.58;;;18.80;96.60;;;;;;4893765;29;20053;-79
2021/09/19 11:19:00;;;;;;;5.25;3.65;;;18.90;96.30;;;;;;4893616;29;20049;-80
2021/09/19 11:21:41;;;;;;;4.80;3.13;;;18.90;95.80;;;;;;4892808;29;20055;-80
2021/09/19 11:24:11;;;;;;;4.43;3.03;;;19.00;96.00;;;;;;4893138;29;20073;-80
2021/09/19 11:26:42;;;;;;;8.95;5.55;;;19.10;96.00;;;;;;4893529;29;20058;-77
2021/09/19 11:29:13;;;;;;;8.35;5.57;;;19.20;96.20;;;;;;4890161;29;20881;-79
2021/09/19 11:31:42;;;;;;;6.93;4.57;;;19.40;96.10;;;;;;4893639;29;20052;-78
2021/09/19 11:34:12;;;;;;;5.40;3.65;;;19.50;95.50;;;;;;4892681;29;20047;-79
2021/09/19 11:36:45;;;;;;;5.43;3.17;;;19.60;95.40;;;;;;4891902;29;20090;-80
2021/09/19 11:39:13;;;;;;;6.10;4.43;;;19.80;95.40;;;;;;4893367;29;20049;-80
2021/09/19 11:41:41;;;;;;;6.70;3.15;;;19.90;94.10;;;;;;4893947;29;20093;-78
2021/09/19 11:44:13;;;;;;;5.20;3.00;;;20.00;94.40;;;;;;4892816;29;20063;-78
2021/09/19 11:46:44;;;;;;;4.93;3.47;;;20.10;94.50;;;;;;4894215;29;20049;-80
2021/09/19 11:49:11;;;;;;;3.97;2.60;;;20.20;94.10;;;;;;4894420;29;20135;-79
2021/09/19 11:51:41;;;;;;;4.80;2.60;;;20.30;94.00;;;;;;4894101;29;20469;-80
2021/09/19 11:54:13;;;;;;;4.22;2.80;;;20.40;93.90;;;;;;4905725;29;20044;-80
2021/09/19 11:56:44;;;;;;;4.20;2.70;;;20.50;93.60;;;;;;4893767;29;20056;-79
2021/09/19 11:59:16;;;;;;;3.83;2.70;;;20.60;93.10;;;;;;4896600;29;20215;-79
2021/09/19 12:01:43;;;;;;;4.70;2.70;;;20.70;92.90;;;;;;4896621;29;20045;-80
2021/09/19 12:04:14;;;;;;;3.88;2.80;;;20.90;92.70;;;;;;4896495;29;20135;-80
2021/09/19 12:06:43;;;;;;;5.07;3.03;;;21.00;92.40;;;;;;4895998;29;20058;-78
2021/09/19 12:09:12;;;;;;;4.07;2.47;;;21.10;91.70;;;;;;4893695;29;20041;-78
2021/09/19 12:11:43;;;;;;;4.50;2.90;;;21.30;91.50;;;;;;4894144;29;20407;-76
2021/09/19 12:14:20;;;;;;;4.60;3.03;;;21.40;91.30;;;;;;4895643;29;20068;-80
2021/09/19 12:17:04;;;;;;;5.97;3.88;;;21.50;90.50;;;;;;4891713;29;20060;-80
2021/09/19 12:19:35;;;;;;;4.38;2.90;;;21.60;90.30;;;;;;4890676;29;20469;-79
2021/09/19 12:22:05;;;;;;;4.63;3.33;;;21.70;88.70;;;;;;4896631;29;20135;-78
2021/09/19 12:24:35;;;;;;;5.63;3.30;;;21.70;86.60;;;;;;4890377;29;20527;-79
2021/09/19 12:27:18;;;;;;;4.00;2.50;;;21.70;85.90;;;;;;4895497;29;20053;-79
2021/09/19 12:30:01;;;;;;;4.67;2.80;;;21.80;86.10;;;;;;4891766;29;20151;-79
2021/09/19 12:32:41;;;;;;;4.03;2.67;;;21.90;85.20;;;;;;4889173;29;20372;-79
2021/09/19 12:35:12;;;;;;;3.70;2.30;;;22.00;84.50;;;;;;4896335;29;20065;-78
2021/09/19 12:37:43;;;;;;;5.78;2.42;;;22.20;83.90;;;;;;4896323;29;20075;-78
2021/09/19 12:40:15;;;;;;;4.00;2.70;;;22.20;82.80;;;;;;4896116;29;20135;-80
2021/09/19 12:42:42;;;;;;;3.53;2.35;;;22.20;82.50;;;;;;4895638;29;20131;-79
2021/09/19 12:45:13;;;;;;;3.95;2.53;;;22.10;80.90;;;;;;4894150;29;20542;-79
2021/09/19 12:47:41;;;;;;;3.92;2.45;;;22.10;80.70;;;;;;4895719;29;20514;-78
2021/09/19 12:50:12;;;;;;;4.63;2.55;;;22.10;81.40;;;;;;4896142;29;20101;-78
2021/09/19 12:52:40;;;;;;;3.90;2.67;;;22.10;82.40;;;;;;4896425;29;20128;-78